createdAt,value
2022-09-26T00:08:20.536Z,7.2
2022-09-26T00:20:20.563Z,7.3
2022-09-26T00:32:20.540Z,7.4
2022-09-26T00:44:20.501Z,7.3
2022-09-26T00:56:20.549Z,7.2
2022-09-26T01:08:20.560Z,7.4
2022-09-26T01:20:20.539Z,7.4
2022-09-26T01:32:20.553Z,7.4
2022-09-26T01:44:20.535Z,7.4
2022-09-26T01:56:20.541Z,7.5
2022-09-26T02:08:20.546Z,7.5
2022-09-26T02:20:20.526Z,7.5
2022-09-26T02:32:20.541Z,7.6
2022-09-26T02:44:20.543Z,7.6
2022-09-26T02:56:20.581Z,7.6
2022-09-26T03:08:20.747Z,7.7
2022-09-26T03:20:20.557Z,7.7
2022-09-26T03:32:20.541Z,7.7
2022-09-26T03:44:20.523Z,7.7
2022-09-26T03:56:20.533Z,7.7
2022-09-26T04:08:20.679Z,7.6
2022-09-26T04:20:20.534Z,7.6
2022-09-26T04:32:20.543Z,7.4
2022-09-26T04:44:20.558Z,7.3
2022-09-26T04:56:20.594Z,7.2
2022-09-26T05:08:20.552Z,7.1
2022-09-26T05:20:20.573Z,7.0
2022-09-26T05:32:20.544Z,7.1
2022-09-26T05:44:21.213Z,7.2
2022-09-26T05:56:20.535Z,7.3
2022-09-26T06:08:20.549Z,7.5
2022-09-26T06:20:20.550Z,7.5
2022-09-26T06:32:20.558Z,7.6
2022-09-26T06:44:20.605Z,7.7
2022-09-26T06:56:20.868Z,7.9
2022-09-26T07:08:28.846Z,8.0
2022-09-26T07:20:20.536Z,8.1
2022-09-26T07:32:20.546Z,8.1
2022-09-26T07:56:20.559Z,8.9
2022-09-26T08:08:20.562Z,9.0
2022-09-26T08:20:20.769Z,8.9
2022-09-26T08:32:20.555Z,9.1
2022-09-26T08:44:20.546Z,9.3
2022-09-26T08:56:20.552Z,9.4
2022-09-26T09:08:20.532Z,9.4
2022-09-26T09:20:20.581Z,9.6
2022-09-26T09:32:20.551Z,9.5
2022-09-26T09:44:20.662Z,9.7
2022-09-26T09:56:20.559Z,9.8
2022-09-26T10:08:22.045Z,9.7
2022-09-26T10:20:20.546Z,9.8
2022-09-26T10:32:20.515Z,9.7
2022-09-26T10:44:20.575Z,9.9
2022-09-26T10:56:20.555Z,9.9
2022-09-26T11:08:20.670Z,10.1
2022-09-26T11:20:20.527Z,10.0
2022-09-26T11:32:20.553Z,10.1
2022-09-26T11:44:21.182Z,10.2
2022-09-26T11:56:20.537Z,10.2
2022-09-26T12:08:20.567Z,10.1
2022-09-26T12:20:20.523Z,10.0
2022-09-26T12:32:20.527Z,10.0
2022-09-26T12:44:20.559Z,10.3
2022-09-26T12:56:20.522Z,10.7
2022-09-26T13:08:20.512Z,11.0
2022-09-26T13:20:20.618Z,12.0
2022-09-26T13:32:20.552Z,11.6
2022-09-26T13:44:20.554Z,11.6
2022-09-26T13:56:20.527Z,11.6
2022-09-26T14:08:20.552Z,11.5
2022-09-26T14:20:20.549Z,11.3
2022-09-26T14:32:20.543Z,11.4
2022-09-26T14:44:20.583Z,11.1
2022-09-26T14:56:20.551Z,10.5
2022-09-26T15:08:20.797Z,10.2
2022-09-26T15:20:20.510Z,10.0
2022-09-26T15:32:20.559Z,9.7
2022-09-26T15:44:20.503Z,9.7
2022-09-26T15:56:21.171Z,9.7
2022-09-26T16:08:20.856Z,9.7
2022-09-26T16:20:20.542Z,9.7
2022-09-26T16:32:20.554Z,9.7
2022-09-26T16:44:26.212Z,9.7
2022-09-26T16:56:20.536Z,9.7
2022-09-26T17:08:21.035Z,9.7
2022-09-26T17:20:20.516Z,9.2
2022-09-26T17:32:20.553Z,9.2
2022-09-26T17:44:20.529Z,9.1
2022-09-26T17:56:20.504Z,9.1
2022-09-26T18:08:20.540Z,9.0
2022-09-26T18:20:20.544Z,9.0
2022-09-26T18:32:20.533Z,8.9
2022-09-26T18:44:20.496Z,8.8
2022-09-26T18:56:20.482Z,8.9
2022-09-26T19:08:21.434Z,8.9
2022-09-26T19:20:20.538Z,8.8
2022-09-26T19:32:20.513Z,8.9
2022-09-26T19:44:20.515Z,8.9
2022-09-26T19:56:20.571Z,8.9
2022-09-26T20:08:20.543Z,9.0
2022-09-26T20:20:20.552Z,9.0
2022-09-26T20:32:20.503Z,9.1
2022-09-26T20:44:20.561Z,9.1
2022-09-26T20:56:20.552Z,9.1
2022-09-26T21:08:20.505Z,9.1
2022-09-26T21:20:21.721Z,9.2
2022-09-26T21:32:20.561Z,9.2
2022-09-26T21:44:20.556Z,9.2
2022-09-26T21:56:20.541Z,9.3
2022-09-26T22:08:20.563Z,9.3
2022-09-26T22:20:20.951Z,9.3
2022-09-26T22:32:20.537Z,9.3
2022-09-26T22:44:20.504Z,9.2
2022-09-26T22:56:20.554Z,9.2
2022-09-26T23:08:20.562Z,9.2
2022-09-26T23:20:20.529Z,9.2
2022-09-26T23:32:20.580Z,9.1
2022-09-26T23:44:20.525Z,9.0
2022-09-26T23:56:20.557Z,9.0
